createdAt,value
2018-02-24T00:00:59.505Z,58.20
2018-02-24T00:03:27.878Z,58.40
2018-02-24T00:05:56.622Z,58.20
2018-02-24T00:08:25.775Z,58.00
2018-02-24T00:10:54.209Z,58.00
2018-02-24T00:13:23.388Z,58.50
2018-02-24T00:15:51.762Z,58.50
2018-02-24T00:18:20.155Z,58.30
2018-02-24T00:20:49.313Z,58.60
2018-02-24T00:23:17.753Z,58.60
2018-02-24T00:25:46.136Z,58.50
2018-02-24T00:28:17.321Z,58.40
2018-02-24T00:30:45.723Z,58.30
2018-02-24T00:33:14.094Z,58.20
2018-02-24T00:35:42.546Z,59.20
2018-02-24T00:38:10.922Z,58.70
2018-02-24T00:40:39.352Z,58.70
2018-02-24T00:43:08.495Z,58.60
2018-02-24T00:45:36.926Z,58.60
2018-02-24T00:48:06.079Z,58.30
2018-02-24T00:50:34.480Z,58.30
2018-02-24T00:53:02.904Z,58.60
2018-02-24T00:55:31.305Z,58.60
2018-02-24T00:57:59.706Z,58.60
2018-02-24T01:00:28.078Z,59.00
2018-02-24T01:02:56.509Z,59.10
2018-02-24T01:05:24.901Z,59.10
2018-02-24T01:07:53.296Z,59.50
2018-02-24T01:10:21.695Z,59.40
2018-02-24T01:12:50.073Z,59.50
2018-02-24T01:15:18.492Z,59.90
2018-02-24T01:17:47.638Z,59.90
2018-02-24T01:20:16.214Z,59.90
2018-02-24T01:22:44.601Z,59.90
2018-02-24T01:25:12.985Z,59.80
2018-02-24T01:27:42.809Z,60.20
2018-02-24T01:30:11.181Z,60.10
2018-02-24T01:32:39.590Z,59.80
2018-02-24T01:35:08.759Z,59.90
2018-02-24T01:37:37.471Z,59.90
2018-02-24T01:40:06.614Z,61.00
2018-02-24T01:42:34.993Z,60.80
2018-02-24T01:45:03.394Z,61.00
2018-02-24T01:47:31.782Z,60.30
2018-02-24T01:50:00.186Z,60.80
2018-02-24T01:52:29.331Z,61.10
2018-02-24T01:54:57.778Z,60.90
2018-02-24T01:57:26.157Z,60.40
2018-02-24T01:59:54.534Z,60.60
2018-02-24T02:02:23.759Z,60.70
2018-02-24T02:04:52.137Z,60.60
2018-02-24T02:07:20.522Z,60.80
2018-02-24T02:09:48.894Z,61.30
2018-02-24T02:12:17.475Z,60.90
2018-02-24T02:14:45.854Z,61.80
2018-02-24T02:17:14.232Z,62.40
2018-02-24T02:19:43.129Z,62.00
2018-02-24T02:22:12.170Z,61.70
2018-02-24T02:24:41.200Z,61.90
2018-02-24T02:27:10.036Z,62.40
2018-02-24T02:29:39.105Z,62.80
2018-02-24T02:32:07.998Z,63.20
2018-02-24T02:34:36.836Z,63.60
2018-02-24T02:37:06.632Z,64.10
2018-02-24T02:39:35.629Z,64.10
2018-02-24T02:42:04.508Z,63.20
2018-02-24T02:44:32.889Z,62.80
2018-02-24T02:47:01.639Z,62.50
2018-02-24T02:49:30.019Z,62.60
2018-02-24T02:51:58.399Z,62.50
2018-02-24T02:54:26.822Z,63.00
2018-02-24T02:56:55.977Z,63.30
2018-02-24T02:59:25.157Z,63.30
2018-02-24T03:01:54.054Z,63.00
2018-02-24T03:04:22.647Z,63.10
2018-02-24T03:06:51.038Z,62.80
2018-02-24T03:09:19.414Z,62.60
2018-02-24T03:11:47.811Z,62.60
2018-02-24T03:14:16.189Z,62.80
2018-02-24T03:16:44.601Z,62.90
2018-02-24T03:19:13.751Z,61.80
2018-02-24T03:21:42.348Z,61.70
2018-02-24T03:24:11.496Z,62.30
2018-02-24T03:26:39.875Z,62.40
2018-02-24T03:29:08.305Z,62.00
2018-02-24T03:31:36.687Z,62.30
2018-02-24T03:34:05.140Z,62.20
2018-02-24T03:36:33.525Z,62.00
2018-02-24T03:39:01.950Z,63.40
2018-02-24T03:41:31.114Z,63.10
2018-02-24T03:43:59.503Z,63.00
2018-02-24T03:46:28.681Z,62.40
2018-02-24T03:48:57.062Z,62.30
2018-02-24T03:51:25.558Z,61.90
2018-02-24T03:53:53.937Z,62.20
2018-02-24T03:56:22.313Z,62.10
2018-02-24T03:58:50.721Z,62.10
2018-02-24T04:01:19.885Z,62.60
2018-02-24T04:03:48.325Z,62.60
2018-02-24T04:06:16.710Z,62.40
2018-02-24T04:08:45.289Z,63.20
2018-02-24T04:11:13.667Z,63.20
2018-02-24T04:13:42.047Z,62.70
2018-02-24T04:16:10.446Z,62.90
2018-02-24T04:18:38.824Z,62.60
2018-02-24T04:21:07.226Z,62.30
2018-02-24T04:23:35.602Z,62.20
2018-02-24T04:26:04.362Z,62.30
2018-02-24T04:28:32.750Z,62.60
2018-02-24T04:31:01.138Z,62.60
2018-02-24T04:33:29.539Z,62.40
2018-02-24T04:35:58.695Z,62.50
2018-02-24T04:38:27.098Z,62.50
2018-02-24T04:40:59.121Z,61.90
2018-02-24T04:52:39.013Z,63.50
2018-02-24T04:55:07.390Z,63.40
2018-02-24T04:57:35.796Z,63.20
2018-02-24T05:00:04.950Z,63.10
2018-02-24T05:02:33.397Z,63.10
2018-02-24T05:05:01.790Z,63.10
2018-02-24T05:07:30.177Z,63.50
2018-02-24T05:09:58.569Z,63.50
2018-02-24T05:12:26.950Z,62.80
2018-02-24T05:14:55.350Z,62.60
2018-02-24T05:17:24.499Z,63.10
2018-02-24T05:19:53.078Z,63.00
2018-02-24T05:22:21.466Z,63.00
2018-02-24T05:24:49.857Z,63.00
2018-02-24T05:27:18.260Z,63.20
2018-02-24T05:29:46.637Z,62.90
2018-02-24T05:32:15.036Z,63.10
2018-02-24T05:34:44.179Z,62.90
2018-02-24T05:37:12.681Z,62.70
2018-02-24T05:39:41.107Z,62.40
2018-02-24T05:42:10.230Z,62.50
2018-02-24T05:44:38.629Z,62.50
2018-02-24T05:47:07.013Z,62.30
2018-02-24T05:49:35.421Z,62.70
2018-02-24T05:52:04.558Z,62.60
2018-02-24T05:54:32.977Z,62.60
2018-02-24T05:57:02.165Z,63.50
2018-02-24T05:59:30.557Z,63.40
2018-02-24T06:01:58.966Z,63.60
2018-02-24T06:04:27.355Z,63.60
2018-02-24T06:06:55.757Z,63.50
2018-02-24T06:09:24.134Z,63.60
2018-02-24T06:11:52.546Z,63.50
2018-02-24T06:14:20.929Z,63.60
2018-02-24T06:16:49.305Z,63.60
2018-02-24T06:19:17.706Z,63.90
2018-02-24T06:21:46.856Z,63.40
2018-02-24T06:24:15.348Z,63.40
2018-02-24T06:26:43.738Z,63.40
2018-02-24T06:29:12.298Z,62.50
2018-02-24T06:31:40.678Z,62.20
2018-02-24T06:34:09.104Z,62.00
2018-02-24T06:36:37.501Z,61.60
2018-02-24T06:39:05.912Z,61.50
2018-02-24T06:41:34.324Z,61.40
2018-02-24T06:44:02.703Z,60.90
2018-02-24T06:46:31.361Z,61.50
2018-02-24T06:48:59.742Z,60.80
2018-02-24T06:51:28.122Z,60.10
2018-02-24T06:53:56.523Z,60.20
2018-02-24T06:56:24.902Z,59.30
2018-02-24T06:58:54.075Z,60.00
2018-02-24T07:01:22.457Z,60.00
2018-02-24T07:03:52.598Z,59.80
2018-02-24T07:06:21.740Z,59.20
2018-02-24T07:08:50.185Z,59.10
2018-02-24T07:11:19.363Z,58.30
2018-02-24T07:13:47.742Z,58.30
2018-02-24T07:16:16.142Z,58.20
2018-02-24T07:18:45.291Z,57.20
2018-02-24T07:21:13.744Z,57.10
2018-02-24T07:24:03.277Z,57.40
2018-02-24T07:26:32.648Z,57.70
2018-02-24T07:29:01.134Z,57.50
2018-02-24T07:31:30.318Z,56.80
2018-02-24T07:33:58.719Z,55.40
2018-02-24T07:36:27.105Z,55.80
2018-02-24T07:38:55.572Z,55.00
2018-02-24T07:41:23.974Z,54.50
2018-02-24T07:43:52.377Z,54.50
2018-02-24T07:46:20.822Z,54.20
2018-02-24T07:48:49.577Z,53.80
2018-02-24T07:51:17.980Z,52.60
2018-02-24T07:53:46.369Z,51.50
2018-02-24T07:56:14.800Z,50.90
2018-02-24T07:58:43.864Z,50.40
2018-02-24T08:01:12.495Z,49.50
2018-02-24T08:03:40.872Z,48.60
2018-02-24T08:06:09.381Z,47.10
2018-02-24T08:08:37.786Z,46.50
2018-02-24T08:11:06.929Z,43.70
2018-02-24T08:13:35.444Z,43.70
2018-02-24T08:16:03.817Z,43.60
2018-02-24T08:18:32.213Z,41.80
2018-02-24T08:21:01.360Z,39.40
2018-02-24T08:23:30.051Z,39.30
2018-02-24T08:25:58.481Z,36.00
2018-02-24T08:28:27.957Z,33.30
2018-02-24T08:30:57.466Z,32.20
2018-02-24T08:33:26.059Z,32.20
2018-02-24T08:35:54.839Z,31.00
2018-02-24T08:38:23.622Z,29.90
2018-02-24T08:40:53.709Z,30.00
2018-02-24T08:43:22.113Z,29.90
2018-02-24T08:45:51.589Z,28.40
2018-02-24T08:48:20.566Z,28.40
2018-02-24T08:50:49.520Z,28.00
2018-02-24T08:53:18.166Z,27.40
2018-02-24T08:55:46.819Z,27.80
2018-02-24T08:58:16.368Z,26.80
2018-02-24T09:00:44.882Z,26.80
2018-02-24T09:03:14.028Z,26.00
2018-02-24T09:05:42.541Z,25.90
2018-02-24T09:08:11.014Z,26.20
2018-02-24T09:10:39.413Z,26.00
2018-02-24T09:13:08.675Z,24.10
2018-02-24T09:15:37.105Z,24.90
2018-02-24T09:18:06.322Z,23.80
2018-02-24T09:20:35.501Z,23.30
2018-02-24T09:23:04.296Z,23.10
2018-02-24T09:25:33.445Z,22.70
2018-02-24T09:28:01.957Z,22.70
2018-02-24T09:30:30.421Z,22.50
2018-02-24T09:32:59.630Z,21.80
2018-02-24T09:35:28.344Z,21.80
2018-02-24T09:37:56.743Z,22.40
2018-02-24T09:40:25.151Z,22.10
2018-02-24T09:42:54.232Z,21.90
2018-02-24T09:45:22.712Z,21.40
2018-02-24T09:47:51.979Z,21.00
2018-02-24T09:50:21.028Z,21.00
2018-02-24T09:52:50.199Z,20.70
2018-02-24T09:55:46.021Z,20.70
2018-02-24T09:58:20.829Z,21.00
2018-02-24T10:00:49.861Z,20.30
2018-02-24T10:03:18.236Z,19.80
2018-02-24T10:05:46.725Z,20.50
2018-02-24T10:08:15.406Z,20.00
2018-02-24T10:10:43.807Z,19.40
2018-02-24T10:13:12.455Z,19.30
2018-02-24T10:15:41.459Z,19.30
2018-02-24T10:18:10.011Z,19.70
2018-02-24T10:20:39.617Z,19.30
2018-02-24T10:23:08.034Z,19.90
2018-02-24T10:25:36.424Z,18.80
2018-02-24T10:28:04.838Z,18.30
2018-02-24T10:30:33.440Z,18.30
2018-02-24T10:33:01.826Z,18.10
2018-02-24T10:35:30.226Z,18.60
2018-02-24T10:37:58.629Z,17.10
2018-02-24T10:40:27.376Z,17.50
2018-02-24T10:42:55.756Z,16.80
2018-02-24T10:45:24.134Z,18.10
2018-02-24T10:47:52.571Z,17.50
2018-02-24T10:50:21.744Z,17.70
2018-02-24T10:55:24.692Z,17.70
2018-02-24T10:57:53.292Z,17.00
2018-02-24T11:00:21.670Z,16.70
2018-02-24T11:02:50.079Z,16.40
2018-02-24T11:05:18.514Z,16.10
2018-02-24T11:07:46.889Z,15.50
2018-02-24T11:10:15.308Z,15.50
2018-02-24T11:12:46.617Z,15.40
2018-02-24T11:15:15.244Z,14.00
2018-02-24T11:17:44.218Z,14.70
2018-02-24T11:20:12.619Z,14.50
2018-02-24T11:22:41.022Z,15.30
2018-02-24T11:25:10.186Z,14.60
2018-02-24T11:27:38.591Z,14.50
2018-02-24T11:30:10.045Z,14.00
2018-02-24T11:32:40.373Z,14.10
2018-02-24T11:35:09.553Z,13.50
2018-02-24T11:37:38.050Z,13.40
2018-02-24T11:40:07.213Z,14.10
2018-02-24T11:42:36.526Z,14.00
2018-02-24T11:45:04.951Z,13.90
2018-02-24T11:47:33.879Z,14.20
2018-02-24T11:50:02.586Z,14.20
2018-02-24T11:52:30.981Z,14.30
2018-02-24T11:55:01.934Z,14.20
2018-02-24T11:57:30.458Z,14.20
2018-02-24T11:59:58.937Z,14.30
2018-02-24T12:02:27.415Z,14.10
2018-02-24T12:04:56.194Z,14.40
2018-02-24T12:07:24.735Z,14.00
2018-02-24T12:09:54.145Z,14.20
2018-02-24T12:12:23.560Z,13.50
2018-02-24T12:14:52.440Z,13.40
2018-02-24T12:17:21.272Z,13.60
2018-02-24T12:19:50.164Z,14.10
2018-02-24T12:22:20.591Z,13.60
2018-02-24T12:24:49.427Z,13.60
2018-02-24T12:27:18.049Z,13.70
2018-02-24T12:29:46.518Z,13.90
2018-02-24T12:32:15.269Z,14.00
2018-02-24T12:34:45.194Z,13.80
2018-02-24T12:37:14.507Z,13.30
2018-02-24T12:39:43.237Z,13.20
2018-02-24T12:42:13.388Z,13.20
2018-02-24T12:44:42.562Z,13.40
2018-02-24T12:47:11.410Z,13.40
2018-02-24T12:49:39.922Z,13.80
2018-02-24T12:52:08.317Z,13.70
2018-02-24T12:54:36.737Z,13.40
2018-02-24T12:57:05.883Z,14.10
2018-02-24T12:59:34.463Z,14.10
2018-02-24T13:02:03.507Z,13.80
2018-02-24T13:04:32.650Z,13.80
2018-02-24T13:07:01.076Z,13.70
2018-02-24T13:09:30.232Z,13.70
2018-02-24T13:11:59.583Z,13.70
2018-02-24T13:14:28.794Z,13.60
2018-02-24T13:16:58.421Z,13.60
2018-02-24T13:19:26.940Z,13.90
2018-02-24T13:21:56.110Z,12.30
2018-02-24T13:24:24.578Z,12.30
2018-02-24T13:26:52.995Z,12.40
2018-02-24T13:29:21.583Z,12.40
2018-02-24T13:31:49.985Z,12.40
2018-02-24T13:34:19.626Z,13.00
2018-02-24T13:36:48.089Z,13.00
2018-02-24T13:39:16.607Z,13.00
2018-02-24T13:41:46.023Z,13.60
2018-02-24T13:44:15.832Z,13.60
2018-02-24T13:46:45.057Z,13.70
2018-02-24T13:49:14.256Z,13.40
2018-02-24T13:51:44.150Z,13.90
2018-02-24T13:54:12.930Z,13.90
2018-02-24T13:56:41.981Z,13.50
2018-02-24T13:59:10.647Z,13.80
2018-02-24T14:01:39.173Z,14.10
2018-02-24T14:04:07.962Z,13.40
2018-02-24T14:06:36.630Z,13.30
2018-02-24T14:09:05.690Z,13.60
2018-02-24T14:11:35.169Z,14.60
2018-02-24T14:14:03.932Z,13.80
2018-02-24T14:16:33.987Z,13.70
2018-02-24T14:19:02.635Z,13.70
2018-02-24T14:21:31.362Z,13.20
2018-02-24T14:23:59.801Z,13.70
2018-02-24T14:26:28.485Z,14.00
2018-02-24T14:28:57.516Z,14.60
2018-02-24T14:31:25.938Z,15.80
2018-02-24T14:33:55.308Z,17.50
2018-02-24T14:36:24.612Z,19.30
2018-02-24T14:38:53.838Z,21.40
2018-02-24T14:41:22.374Z,21.40
2018-02-24T14:43:51.334Z,22.40
2018-02-24T14:46:20.962Z,23.20
2018-02-24T14:48:49.858Z,23.70
2018-02-24T14:51:18.618Z,24.80
2018-02-24T14:53:47.060Z,25.40
2018-02-24T14:56:16.259Z,26.80
2018-02-24T14:58:44.638Z,26.80
2018-02-24T15:01:13.057Z,27.70
2018-02-24T15:03:42.355Z,28.00
2018-02-24T15:06:11.736Z,28.10
2018-02-24T15:08:40.150Z,28.80
2018-02-24T15:11:08.541Z,29.10
2018-02-24T15:13:36.958Z,29.50
2018-02-24T15:16:05.684Z,29.70
2018-02-24T15:18:35.022Z,30.40
2018-02-24T15:21:04.485Z,30.50
2018-02-24T15:23:33.134Z,30.50
2018-02-24T15:26:01.923Z,31.40
2018-02-24T15:28:30.686Z,31.40
2018-02-24T15:30:59.854Z,32.30
2018-02-24T15:33:28.370Z,32.20
2018-02-24T15:35:57.572Z,32.00
2018-02-24T15:38:26.735Z,32.20
2018-02-24T15:40:55.746Z,32.10
2018-02-24T15:43:24.676Z,32.50
2018-02-24T15:45:53.471Z,33.20
2018-02-24T15:48:22.319Z,33.30
2018-02-24T15:50:51.172Z,33.50
2018-02-24T15:53:21.669Z,33.40
2018-02-24T15:55:51.358Z,33.40
2018-02-24T15:58:20.398Z,33.70
2018-02-24T16:00:49.190Z,33.80
2018-02-24T16:03:18.659Z,34.60
2018-02-24T16:05:47.178Z,34.60
2018-02-24T16:08:15.622Z,34.80
2018-02-24T16:10:44.614Z,34.70
2018-02-24T16:13:13.806Z,34.90
2018-02-24T16:15:42.235Z,35.10
2018-02-24T16:18:11.496Z,35.90
2018-02-24T16:20:40.051Z,35.80
2018-02-24T16:23:09.206Z,36.10
2018-02-24T16:25:38.338Z,36.10
2018-02-24T16:28:06.781Z,36.50
2018-02-24T16:30:35.399Z,36.50
2018-02-24T16:33:03.822Z,36.80
2018-02-24T16:35:32.320Z,37.50
2018-02-24T16:38:00.706Z,37.80
2018-02-24T16:40:29.101Z,38.10
2018-02-24T16:42:57.467Z,38.50
2018-02-24T16:45:25.910Z,39.10
2018-02-24T16:47:54.330Z,39.40
2018-02-24T16:50:22.850Z,39.50
2018-02-24T16:52:51.721Z,39.80
2018-02-24T16:55:20.096Z,40.00
2018-02-24T16:57:50.030Z,40.70
2018-02-24T17:00:20.179Z,40.80
2018-02-24T17:02:48.570Z,40.70
2018-02-24T17:05:17.105Z,41.10
2018-02-24T17:07:46.463Z,41.80
2018-02-24T17:10:14.857Z,41.80
2018-02-24T17:12:43.229Z,41.40
2018-02-24T17:15:11.640Z,42.40
2018-02-24T17:17:40.770Z,42.40
2018-02-24T17:20:09.186Z,42.40
2018-02-24T17:22:37.587Z,42.70
2018-02-24T17:25:05.999Z,43.20
2018-02-24T17:27:34.367Z,42.50
2018-02-24T17:30:03.549Z,43.10
2018-02-24T17:32:32.709Z,43.20
2018-02-24T17:35:01.331Z,43.20
2018-02-24T17:37:30.509Z,43.30
2018-02-24T17:43:00.340Z,43.30
2018-02-24T17:45:30.227Z,43.30
2018-02-24T17:48:03.177Z,43.30
2018-02-24T17:50:31.593Z,43.30
2018-02-24T17:53:00.385Z,43.50
2018-02-24T17:55:29.370Z,43.70
2018-02-24T17:57:59.277Z,43.40
2018-02-24T18:00:28.825Z,44.00
2018-02-24T18:02:58.536Z,43.50
2018-02-24T18:05:28.059Z,43.20
2018-02-24T18:07:56.897Z,43.20
2018-02-24T18:10:30.281Z,43.20
2018-02-24T18:13:04.599Z,43.50
2018-02-24T18:15:39.288Z,43.00
2018-02-24T18:18:09.870Z,43.20
2018-02-24T18:20:39.848Z,42.60
2018-02-24T18:23:10.156Z,43.20
2018-02-24T18:25:40.592Z,42.80
2018-02-24T18:28:10.297Z,43.30
2018-02-24T18:30:40.418Z,43.30
2018-02-24T18:33:09.176Z,43.20
2018-02-24T18:35:38.805Z,43.20
2018-02-24T18:38:08.060Z,43.10
2018-02-24T18:40:36.517Z,43.10
2018-02-24T18:43:07.357Z,43.70
2018-02-24T18:45:37.312Z,43.30
2018-02-24T18:48:07.938Z,43.60
2018-02-24T18:50:36.486Z,43.60
2018-02-24T18:53:05.095Z,44.10
2018-02-24T18:55:35.652Z,43.30
2018-02-24T18:58:04.194Z,43.30
2018-02-24T19:00:32.886Z,43.50
2018-02-24T19:03:01.322Z,43.60
2018-02-24T19:05:30.147Z,43.50
2018-02-24T19:07:58.586Z,43.50
2018-02-24T19:10:28.084Z,44.30
2018-02-24T19:12:59.189Z,44.20
2018-02-24T19:15:28.335Z,44.40
2018-02-24T19:17:57.518Z,43.80
2018-02-24T19:20:27.542Z,43.70
2018-02-24T19:22:59.866Z,43.90
2018-02-24T19:25:30.691Z,44.20
2018-02-24T19:28:00.095Z,44.10
2018-02-24T19:30:28.974Z,44.00
2018-02-24T19:32:57.378Z,44.50
2018-02-24T19:35:26.048Z,44.80
2018-02-24T19:37:54.967Z,44.60
2018-02-24T19:40:23.594Z,44.80
2018-02-24T19:42:52.058Z,44.50
2018-02-24T19:45:21.046Z,44.40
2018-02-24T19:47:50.201Z,44.80
2018-02-24T19:50:18.783Z,44.70
2018-02-24T19:52:48.735Z,45.20
2018-02-24T19:55:17.879Z,45.70
2018-02-24T19:57:46.305Z,45.00
2018-02-24T20:00:15.538Z,45.40
2018-02-24T20:02:45.783Z,45.30
2018-02-24T20:05:15.506Z,45.00
2018-02-24T20:07:44.377Z,44.90
2018-02-24T20:10:13.386Z,44.30
2018-02-24T20:12:42.191Z,44.90
2018-02-24T20:15:11.682Z,45.60
2018-02-24T20:17:40.369Z,45.60
2018-02-24T20:20:09.821Z,46.10
2018-02-24T20:22:38.265Z,46.20
2018-02-24T20:25:07.411Z,45.60
2018-02-24T20:27:36.236Z,45.90
2018-02-24T20:30:05.627Z,46.00
2018-02-24T20:32:34.447Z,46.10
2018-02-24T20:35:03.132Z,46.20
2018-02-24T20:37:31.538Z,46.30
2018-02-24T20:40:00.723Z,45.90
2018-02-24T20:42:29.920Z,46.20
2018-02-24T20:44:59.596Z,46.50
2018-02-24T20:47:28.220Z,46.50
2018-02-24T20:49:57.376Z,46.60
2018-02-24T20:52:25.818Z,46.80
2018-02-24T20:54:54.720Z,46.20
2018-02-24T20:57:23.343Z,46.00
2018-02-24T20:59:52.330Z,46.30
2018-02-24T21:02:20.846Z,46.00
2018-02-24T21:04:50.088Z,45.40
2018-02-24T21:07:18.492Z,45.40
2018-02-24T21:09:46.909Z,45.30
2018-02-24T21:12:16.082Z,44.90
2018-02-24T21:14:44.705Z,44.80
2018-02-24T21:17:13.173Z,44.90
2018-02-24T21:19:42.518Z,44.90
2018-02-24T21:22:11.218Z,44.90
2018-02-24T21:24:40.356Z,44.30
2018-02-24T21:27:09.394Z,44.30
2018-02-24T21:29:39.196Z,44.90
2018-02-24T21:32:07.888Z,44.90
2018-02-24T21:34:36.303Z,44.90
2018-02-24T21:37:04.742Z,44.90
2018-02-24T21:39:33.433Z,45.10
2018-02-24T21:42:01.818Z,45.30
2018-02-24T21:44:30.215Z,45.50
2018-02-24T21:46:58.600Z,45.80
2018-02-24T21:49:27.021Z,45.70
2018-02-24T21:51:55.393Z,46.00
2018-02-24T21:54:23.771Z,46.60
2018-02-24T21:56:52.194Z,46.70
2018-02-24T21:59:20.616Z,46.70
2018-02-24T22:01:49.796Z,46.90
2018-02-24T22:04:18.181Z,46.90
2018-02-24T22:06:47.531Z,46.80
2018-02-24T22:09:15.904Z,46.70
2018-02-24T22:11:44.290Z,46.70
2018-02-24T22:14:12.695Z,46.50
2018-02-24T22:16:41.071Z,46.50
2018-02-24T22:19:09.640Z,46.40
2018-02-24T22:21:38.054Z,46.00
2018-02-24T22:24:06.933Z,45.90
2018-02-24T22:26:35.352Z,46.50
2018-02-24T22:29:03.875Z,45.80
2018-02-24T22:31:32.282Z,45.90
2018-02-24T22:34:05.215Z,45.60
2018-02-24T22:36:33.684Z,45.60
2018-02-24T22:39:02.087Z,45.30
2018-02-24T22:41:30.497Z,45.10
2018-02-24T22:43:58.872Z,44.50
2018-02-24T22:46:27.627Z,44.90
2018-02-24T22:49:00.986Z,44.90
2018-02-24T22:51:30.270Z,44.90
2018-02-24T22:53:58.649Z,44.90
2018-02-24T22:56:27.026Z,45.00
2018-02-24T22:58:55.469Z,44.80
2018-02-24T23:01:23.856Z,44.30
2018-02-24T23:03:52.257Z,44.90
2018-02-24T23:06:20.682Z,45.40
2018-02-24T23:08:49.335Z,45.40
2018-02-24T23:11:18.900Z,45.20
2018-02-24T23:13:47.686Z,45.10
2018-02-24T23:16:17.006Z,45.50
2018-02-24T23:18:49.182Z,45.50
2018-02-24T23:21:19.394Z,45.70
2018-02-24T23:23:51.645Z,45.30
2018-02-24T23:26:20.147Z,45.20
2018-02-24T23:28:49.530Z,45.30
2018-02-24T23:31:17.906Z,45.50
2018-02-24T23:33:47.697Z,45.50
2018-02-24T23:36:17.321Z,45.50
2018-02-24T23:38:49.600Z,45.50
2018-02-24T23:41:19.046Z,45.40
2018-02-24T23:43:50.398Z,45.70
2018-02-24T23:46:22.367Z,45.70
2018-02-24T23:48:54.254Z,45.90
2018-02-24T23:51:25.161Z,45.80
2018-02-24T23:53:56.580Z,45.80
2018-02-24T23:56:28.215Z,45.90
2018-02-24T23:58:58.810Z,45.90
